sensor_id;sensor_type;location;lat;lon;timestamp;P1;durP1;ratioP1;P2;durP2;ratioP2
7057;SDS011;3570;43.080;25.628;2023-10-13T00:02:42;13.50;;;6.30;;
7057;SDS011;3570;43.080;25.628;2023-10-13T00:05:29;15.40;;;8.30;;
7057;SDS011;3570;43.080;25.628;2023-10-13T00:08:16;15.77;;;8.77;;
7057;SDS011;3570;43.080;25.628;2023-10-13T00:11:01;13.63;;;7.17;;
7057;SDS011;3570;43.080;25.628;2023-10-13T00:13:46;11.90;;;7.63;;
7057;SDS011;3570;43.080;25.628;2023-10-13T00:16:34;11.03;;;7.00;;
7057;SDS011;3570;43.080;25.628;2023-10-13T00:19:20;13.17;;;7.73;;
7057;SDS011;3570;43.080;25.628;2023-10-13T00:22:08;12.47;;;7.70;;
7057;SDS011;3570;43.080;25.628;2023-10-13T00:24:53;14.93;;;7.23;;
7057;SDS011;3570;43.080;25.628;2023-10-13T00:27:46;16.20;;;7.60;;
7057;SDS011;3570;43.080;25.628;2023-10-13T00:30:35;13.13;;;7.70;;
7057;SDS011;3570;43.080;25.628;2023-10-13T00:33:23;21.60;;;7.97;;
7057;SDS011;3570;43.080;25.628;2023-10-13T00:36:07;14.87;;;8.00;;
7057;SDS011;3570;43.080;25.628;2023-10-13T00:39:00;11.07;;;7.13;;
7057;SDS011;3570;43.080;25.628;2023-10-13T00:41:45;16.90;;;7.30;;
7057;SDS011;3570;43.080;25.628;2023-10-13T00:44:35;12.93;;;6.97;;
7057;SDS011;3570;43.080;25.628;2023-10-13T00:47:26;10.77;;;6.50;;
7057;SDS011;3570;43.080;25.628;2023-10-13T00:50:32;11.67;;;6.60;;
7057;SDS011;3570;43.080;25.628;2023-10-13T00:53:20;13.83;;;6.60;;
7057;SDS011;3570;43.080;25.628;2023-10-13T00:56:04;12.43;;;7.50;;
7057;SDS011;3570;43.080;25.628;2023-10-13T00:58:53;11.93;;;6.10;;
7057;SDS011;3570;43.080;25.628;2023-10-13T01:01:45;14.20;;;7.50;;
7057;SDS011;3570;43.080;25.628;2023-10-13T01:04:29;9.47;;;6.40;;
7057;SDS011;3570;43.080;25.628;2023-10-13T01:07:15;11.00;;;6.83;;
7057;SDS011;3570;43.080;25.628;2023-10-13T01:09:59;13.53;;;6.10;;
7057;SDS011;3570;43.080;25.628;2023-10-13T01:12:43;14.27;;;6.70;;
7057;SDS011;3570;43.080;25.628;2023-10-13T01:15:29;15.77;;;6.10;;
7057;SDS011;3570;43.080;25.628;2023-10-13T01:18:13;12.63;;;6.70;;
7057;SDS011;3570;43.080;25.628;2023-10-13T01:20:57;8.20;;;5.50;;
7057;SDS011;3570;43.080;25.628;2023-10-13T01:23:43;7.10;;;5.10;;
7057;SDS011;3570;43.080;25.628;2023-10-13T01:26:29;7.03;;;4.80;;
7057;SDS011;3570;43.080;25.628;2023-10-13T01:29:13;8.20;;;4.93;;
7057;SDS011;3570;43.080;25.628;2023-10-13T01:31:57;7.87;;;4.90;;
7057;SDS011;3570;43.080;25.628;2023-10-13T01:34:41;7.47;;;5.33;;
7057;SDS011;3570;43.080;25.628;2023-10-13T01:37:29;6.83;;;5.43;;
7057;SDS011;3570;43.080;25.628;2023-10-13T01:40:13;10.03;;;6.20;;
7057;SDS011;3570;43.080;25.628;2023-10-13T01:43:02;9.83;;;6.47;;
7057;SDS011;3570;43.080;25.628;2023-10-13T01:45:48;9.70;;;6.10;;
7057;SDS011;3570;43.080;25.628;2023-10-13T01:48:33;11.80;;;5.83;;
7057;SDS011;3570;43.080;25.628;2023-10-13T01:51:22;7.10;;;5.87;;
7057;SDS011;3570;43.080;25.628;2023-10-13T01:54:07;8.57;;;5.60;;
7057;SDS011;3570;43.080;25.628;2023-10-13T01:56:55;8.80;;;5.30;;
7057;SDS011;3570;43.080;25.628;2023-10-13T01:59:48;8.63;;;5.83;;
7057;SDS011;3570;43.080;25.628;2023-10-13T02:02:33;12.90;;;5.40;;
7057;SDS011;3570;43.080;25.628;2023-10-13T02:05:17;9.07;;;5.17;;
7057;SDS011;3570;43.080;25.628;2023-10-13T02:08:01;9.07;;;6.10;;
7057;SDS011;3570;43.080;25.628;2023-10-13T02:10:46;9.67;;;5.93;;
7057;SDS011;3570;43.080;25.628;2023-10-13T02:13:30;11.20;;;6.50;;
7057;SDS011;3570;43.080;25.628;2023-10-13T02:16:14;13.83;;;7.37;;
7057;SDS011;3570;43.080;25.628;2023-10-13T02:19:05;9.50;;;5.80;;
7057;SDS011;3570;43.080;25.628;2023-10-13T02:21:48;12.60;;;6.13;;
7057;SDS011;3570;43.080;25.628;2023-10-13T02:24:42;8.20;;;5.90;;
7057;SDS011;3570;43.080;25.628;2023-10-13T02:27:29;9.07;;;6.40;;
7057;SDS011;3570;43.080;25.628;2023-10-13T02:30:23;10.73;;;6.03;;
7057;SDS011;3570;43.080;25.628;2023-10-13T02:33:08;14.00;;;7.10;;
7057;SDS011;3570;43.080;25.628;2023-10-13T02:35:56;12.20;;;6.30;;
7057;SDS011;3570;43.080;25.628;2023-10-13T02:38:41;10.30;;;6.90;;
7057;SDS011;3570;43.080;25.628;2023-10-13T02:41:31;9.97;;;6.40;;
7057;SDS011;3570;43.080;25.628;2023-10-13T02:44:16;12.50;;;6.70;;
7057;SDS011;3570;43.080;25.628;2023-10-13T02:47:17;17.20;;;8.93;;
7057;SDS011;3570;43.080;25.628;2023-10-13T02:50:03;17.90;;;7.13;;
7057;SDS011;3570;43.080;25.628;2023-10-13T02:52:55;9.70;;;7.03;;
7057;SDS011;3570;43.080;25.628;2023-10-13T02:55:52;13.53;;;6.97;;
7057;SDS011;3570;43.080;25.628;2023-10-13T02:58:36;12.50;;;7.00;;
7057;SDS011;3570;43.080;25.628;2023-10-13T03:01:27;12.30;;;7.03;;
7057;SDS011;3570;43.080;25.628;2023-10-13T03:04:12;14.83;;;7.27;;
7057;SDS011;3570;43.080;25.628;2023-10-13T03:06:56;9.83;;;6.60;;
7057;SDS011;3570;43.080;25.628;2023-10-13T03:09:43;8.43;;;5.53;;
7057;SDS011;3570;43.080;25.628;2023-10-13T03:12:34;6.60;;;5.13;;
7057;SDS011;3570;43.080;25.628;2023-10-13T03:15:19;7.47;;;5.60;;
7057;SDS011;3570;43.080;25.628;2023-10-13T03:18:05;12.30;;;5.37;;
7057;SDS011;3570;43.080;25.628;2023-10-13T03:20:48;15.70;;;6.40;;
7057;SDS011;3570;43.080;25.628;2023-10-13T03:23:40;16.50;;;5.47;;
7057;SDS011;3570;43.080;25.628;2023-10-13T03:26:30;7.00;;;5.63;;
7057;SDS011;3570;43.080;25.628;2023-10-13T03:29:18;12.13;;;6.20;;
7057;SDS011;3570;43.080;25.628;2023-10-13T03:32:05;15.20;;;7.37;;
7057;SDS011;3570;43.080;25.628;2023-10-13T03:34:55;13.47;;;7.13;;
7057;SDS011;3570;43.080;25.628;2023-10-13T03:37:45;15.50;;;7.00;;
7057;SDS011;3570;43.080;25.628;2023-10-13T03:40:29;10.83;;;7.07;;
7057;SDS011;3570;43.080;25.628;2023-10-13T03:43:14;12.97;;;8.40;;
7057;SDS011;3570;43.080;25.628;2023-10-13T03:46:05;13.00;;;8.17;;
7057;SDS011;3570;43.080;25.628;2023-10-13T03:48:52;13.60;;;8.07;;
7057;SDS011;3570;43.080;25.628;2023-10-13T03:51:38;12.43;;;7.40;;
7057;SDS011;3570;43.080;25.628;2023-10-13T03:54:23;19.70;;;8.53;;
7057;SDS011;3570;43.080;25.628;2023-10-13T03:57:07;11.93;;;8.20;;
7057;SDS011;3570;43.080;25.628;2023-10-13T03:59:55;14.23;;;8.13;;
7057;SDS011;3570;43.080;25.628;2023-10-13T04:02:39;15.43;;;8.43;;
7057;SDS011;3570;43.080;25.628;2023-10-13T04:05:30;14.27;;;9.23;;
7057;SDS011;3570;43.080;25.628;2023-10-13T04:08:28;17.27;;;8.93;;
7057;SDS011;3570;43.080;25.628;2023-10-13T04:11:12;16.00;;;8.97;;
7057;SDS011;3570;43.080;25.628;2023-10-13T04:14:16;14.43;;;9.00;;
7057;SDS011;3570;43.080;25.628;2023-10-13T04:17:28;18.67;;;9.47;;
7057;SDS011;3570;43.080;25.628;2023-10-13T04:20:13;15.60;;;8.40;;
7057;SDS011;3570;43.080;25.628;2023-10-13T04:23:03;15.70;;;9.53;;
7057;SDS011;3570;43.080;25.628;2023-10-13T04:26:04;14.97;;;8.30;;
7057;SDS011;3570;43.080;25.628;2023-10-13T04:29:04;14.23;;;9.10;;
7057;SDS011;3570;43.080;25.628;2023-10-13T04:31:57;13.20;;;8.47;;
7057;SDS011;3570;43.080;25.628;2023-10-13T04:34:44;15.67;;;9.07;;
7057;SDS011;3570;43.080;25.628;2023-10-13T04:37:36;13.53;;;8.37;;
7057;SDS011;3570;43.080;25.628;2023-10-13T04:40:44;14.03;;;7.03;;
7057;SDS011;3570;43.080;25.628;2023-10-13T04:43:42;13.47;;;7.87;;
7057;SDS011;3570;43.080;25.628;2023-10-13T04:46:39;13.93;;;7.20;;
7057;SDS011;3570;43.080;25.628;2023-10-13T04:49:30;15.73;;;8.30;;
7057;SDS011;3570;43.080;25.628;2023-10-13T04:52:18;14.90;;;8.07;;
7057;SDS011;3570;43.080;25.628;2023-10-13T04:55:21;29.43;;;8.43;;
7057;SDS011;3570;43.080;25.628;2023-10-13T04:58:32;14.13;;;8.20;;
7057;SDS011;3570;43.080;25.628;2023-10-13T05:01:16;17.63;;;9.03;;
7057;SDS011;3570;43.080;25.628;2023-10-13T05:04:20;13.37;;;7.60;;
7057;SDS011;3570;43.080;25.628;2023-10-13T05:07:41;16.83;;;9.13;;
7057;SDS011;3570;43.080;25.628;2023-10-13T05:10:44;18.27;;;9.00;;
7057;SDS011;3570;43.080;25.628;2023-10-13T05:13:47;20.90;;;9.30;;
7057;SDS011;3570;43.080;25.628;2023-10-13T05:16:49;12.10;;;8.43;;
7057;SDS011;3570;43.080;25.628;2023-10-13T05:19:55;17.87;;;9.03;;
7057;SDS011;3570;43.080;25.628;2023-10-13T05:22:59;18.80;;;9.70;;
7057;SDS011;3570;43.080;25.628;2023-10-13T05:26:02;15.57;;;7.37;;
7057;SDS011;3570;43.080;25.628;2023-10-13T05:29:05;13.10;;;6.77;;
7057;SDS011;3570;43.080;25.628;2023-10-13T05:32:08;10.93;;;7.37;;
7057;SDS011;3570;43.080;25.628;2023-10-13T05:35:11;14.40;;;9.43;;
7057;SDS011;3570;43.080;25.628;2023-10-13T05:38:15;11.57;;;7.87;;
7057;SDS011;3570;43.080;25.628;2023-10-13T05:41:17;15.00;;;9.00;;
7057;SDS011;3570;43.080;25.628;2023-10-13T05:44:20;13.83;;;9.80;;
7057;SDS011;3570;43.080;25.628;2023-10-13T05:47:17;15.07;;;9.53;;
7057;SDS011;3570;43.080;25.628;2023-10-13T05:50:20;16.87;;;9.57;;
7057;SDS011;3570;43.080;25.628;2023-10-13T05:53:04;19.47;;;8.83;;
7057;SDS011;3570;43.080;25.628;2023-10-13T05:55:54;17.73;;;9.13;;
7057;SDS011;3570;43.080;25.628;2023-10-13T05:59:02;14.97;;;9.73;;
7057;SDS011;3570;43.080;25.628;2023-10-13T06:02:05;16.90;;;9.27;;
7057;SDS011;3570;43.080;25.628;2023-10-13T06:05:09;18.23;;;8.80;;
7057;SDS011;3570;43.080;25.628;2023-10-13T06:08:14;22.57;;;9.60;;
7057;SDS011;3570;43.080;25.628;2023-10-13T06:11:17;19.07;;;8.90;;
7057;SDS011;3570;43.080;25.628;2023-10-13T06:14:20;20.33;;;10.00;;
7057;SDS011;3570;43.080;25.628;2023-10-13T06:17:23;17.90;;;9.40;;
7057;SDS011;3570;43.080;25.628;2023-10-13T06:20:26;16.27;;;9.57;;
7057;SDS011;3570;43.080;25.628;2023-10-13T06:23:29;17.97;;;9.90;;
7057;SDS011;3570;43.080;25.628;2023-10-13T06:26:32;23.37;;;10.80;;
7057;SDS011;3570;43.080;25.628;2023-10-13T06:29:34;22.17;;;11.13;;
7057;SDS011;3570;43.080;25.628;2023-10-13T06:32:18;21.90;;;11.13;;
7057;SDS011;3570;43.080;25.628;2023-10-13T06:35:03;14.60;;;8.87;;
7057;SDS011;3570;43.080;25.628;2023-10-13T06:38:10;14.03;;;7.93;;
7057;SDS011;3570;43.080;25.628;2023-10-13T06:41:05;24.90;;;9.70;;
7057;SDS011;3570;43.080;25.628;2023-10-13T06:43:49;12.03;;;7.37;;
7057;SDS011;3570;43.080;25.628;2023-10-13T06:46:42;11.83;;;8.00;;
7057;SDS011;3570;43.080;25.628;2023-10-13T06:49:27;18.33;;;7.73;;
7057;SDS011;3570;43.080;25.628;2023-10-13T06:52:12;13.70;;;8.80;;
7057;SDS011;3570;43.080;25.628;2023-10-13T06:54:56;16.90;;;9.03;;
7057;SDS011;3570;43.080;25.628;2023-10-13T06:57:41;20.93;;;9.87;;
7057;SDS011;3570;43.080;25.628;2023-10-13T07:00:28;17.60;;;9.87;;
7057;SDS011;3570;43.080;25.628;2023-10-13T07:03:18;20.80;;;9.50;;
7057;SDS011;3570;43.080;25.628;2023-10-13T07:06:05;16.63;;;10.60;;
7057;SDS011;3570;43.080;25.628;2023-10-13T07:08:54;26.53;;;11.23;;
7057;SDS011;3570;43.080;25.628;2023-10-13T07:11:39;19.90;;;12.13;;
7057;SDS011;3570;43.080;25.628;2023-10-13T07:14:26;23.23;;;14.03;;
7057;SDS011;3570;43.080;25.628;2023-10-13T07:17:10;27.23;;;16.53;;
7057;SDS011;3570;43.080;25.628;2023-10-13T07:19:55;27.70;;;18.50;;
7057;SDS011;3570;43.080;25.628;2023-10-13T07:22:57;33.37;;;21.37;;
7057;SDS011;3570;43.080;25.628;2023-10-13T07:25:56;35.37;;;23.37;;
7057;SDS011;3570;43.080;25.628;2023-10-13T07:28:46;34.17;;;25.07;;
7057;SDS011;3570;43.080;25.628;2023-10-13T07:31:30;31.87;;;22.90;;
7057;SDS011;3570;43.080;25.628;2023-10-13T07:34:14;32.37;;;24.77;;
7057;SDS011;3570;43.080;25.628;2023-10-13T07:37:15;31.00;;;23.57;;
7057;SDS011;3570;43.080;25.628;2023-10-13T07:39:59;34.07;;;21.50;;
7057;SDS011;3570;43.080;25.628;2023-10-13T07:42:44;37.87;;;25.73;;
7057;SDS011;3570;43.080;25.628;2023-10-13T07:45:30;36.07;;;25.10;;
7057;SDS011;3570;43.080;25.628;2023-10-13T07:48:20;36.70;;;21.43;;
7057;SDS011;3570;43.080;25.628;2023-10-13T07:51:05;33.33;;;21.90;;
7057;SDS011;3570;43.080;25.628;2023-10-13T07:53:55;29.43;;;20.03;;
7057;SDS011;3570;43.080;25.628;2023-10-13T07:56:40;29.70;;;19.17;;
7057;SDS011;3570;43.080;25.628;2023-10-13T07:59:24;34.77;;;21.37;;
7057;SDS011;3570;43.080;25.628;2023-10-13T08:02:08;31.10;;;18.87;;
7057;SDS011;3570;43.080;25.628;2023-10-13T08:05:17;23.40;;;17.70;;
7057;SDS011;3570;43.080;25.628;2023-10-13T08:08:23;22.57;;;15.67;;
7057;SDS011;3570;43.080;25.628;2023-10-13T08:11:18;23.80;;;15.60;;
7057;SDS011;3570;43.080;25.628;2023-10-13T08:14:14;18.77;;;12.90;;
7057;SDS011;3570;43.080;25.628;2023-10-13T08:17:01;16.13;;;12.47;;
7057;SDS011;3570;43.080;25.628;2023-10-13T08:19:48;18.37;;;12.20;;
7057;SDS011;3570;43.080;25.628;2023-10-13T08:22:33;20.37;;;11.43;;
7057;SDS011;3570;43.080;25.628;2023-10-13T08:25:21;16.43;;;11.10;;
7057;SDS011;3570;43.080;25.628;2023-10-13T08:28:17;13.83;;;10.20;;
7057;SDS011;3570;43.080;25.628;2023-10-13T08:31:21;15.20;;;9.83;;
7057;SDS011;3570;43.080;25.628;2023-10-13T08:34:10;17.43;;;9.10;;
7057;SDS011;3570;43.080;25.628;2023-10-13T08:36:59;11.83;;;7.93;;
7057;SDS011;3570;43.080;25.628;2023-10-13T08:39:46;13.93;;;8.27;;
7057;SDS011;3570;43.080;25.628;2023-10-13T08:42:46;10.20;;;7.20;;
7057;SDS011;3570;43.080;25.628;2023-10-13T08:45:31;12.47;;;6.87;;
7057;SDS011;3570;43.080;25.628;2023-10-13T08:48:21;16.57;;;6.70;;
7057;SDS011;3570;43.080;25.628;2023-10-13T08:51:14;10.47;;;5.83;;
7057;SDS011;3570;43.080;25.628;2023-10-13T08:54:15;11.60;;;6.00;;
7057;SDS011;3570;43.080;25.628;2023-10-13T08:57:02;12.85;;;5.72;;
7057;SDS011;3570;43.080;25.628;2023-10-13T09:00:16;9.77;;;6.00;;
7057;SDS011;3570;43.080;25.628;2023-10-13T09:03:32;11.40;;;6.90;;
7057;SDS011;3570;43.080;25.628;2023-10-13T09:06:24;12.88;;;6.70;;
7057;SDS011;3570;43.080;25.628;2023-10-13T09:09:09;9.15;;;6.97;;
7057;SDS011;3570;43.080;25.628;2023-10-13T09:12:11;13.52;;;5.60;;
7057;SDS011;3570;43.080;25.628;2023-10-13T09:14:56;8.38;;;5.93;;
7057;SDS011;3570;43.080;25.628;2023-10-13T09:17:41;9.50;;;5.80;;
7057;SDS011;3570;43.080;25.628;2023-10-13T09:20:59;11.20;;;6.13;;
7057;SDS011;3570;43.080;25.628;2023-10-13T09:24:04;8.80;;;6.40;;
7057;SDS011;3570;43.080;25.628;2023-10-13T09:27:11;12.02;;;5.63;;
7057;SDS011;3570;43.080;25.628;2023-10-13T09:29:57;6.93;;;4.90;;
7057;SDS011;3570;43.080;25.628;2023-10-13T09:35:48;10.23;;;6.18;;
7057;SDS011;3570;43.080;25.628;2023-10-13T09:38:36;6.03;;;5.10;;
7057;SDS011;3570;43.080;25.628;2023-10-13T09:41:24;8.73;;;5.20;;
7057;SDS011;3570;43.080;25.628;2023-10-13T09:44:11;6.50;;;5.38;;
7057;SDS011;3570;43.080;25.628;2023-10-13T09:46:57;9.05;;;5.90;;
7057;SDS011;3570;43.080;25.628;2023-10-13T09:49:50;7.45;;;4.65;;
7057;SDS011;3570;43.080;25.628;2023-10-13T09:52:42;8.10;;;4.13;;
7057;SDS011;3570;43.080;25.628;2023-10-13T09:55:30;14.20;;;4.20;;
7057;SDS011;3570;43.080;25.628;2023-10-13T09:58:18;10.55;;;5.38;;
7057;SDS011;3570;43.080;25.628;2023-10-13T10:01:12;7.53;;;4.30;;
7057;SDS011;3570;43.080;25.628;2023-10-13T10:04:08;7.57;;;4.63;;
7057;SDS011;3570;43.080;25.628;2023-10-13T10:06:56;9.77;;;4.25;;
7057;SDS011;3570;43.080;25.628;2023-10-13T10:09:41;12.57;;;5.00;;
7057;SDS011;3570;43.080;25.628;2023-10-13T10:18:28;9.10;;;4.00;;
7057;SDS011;3570;43.080;25.628;2023-10-13T10:21:12;9.82;;;5.63;;
7057;SDS011;3570;43.080;25.628;2023-10-13T10:23:58;10.75;;;5.20;;
7057;SDS011;3570;43.080;25.628;2023-10-13T10:26:52;9.98;;;5.63;;
7057;SDS011;3570;43.080;25.628;2023-10-13T10:29:37;9.10;;;4.60;;
7057;SDS011;3570;43.080;25.628;2023-10-13T10:32:21;4.70;;;3.53;;
7057;SDS011;3570;43.080;25.628;2023-10-13T10:35:06;7.03;;;3.80;;
7057;SDS011;3570;43.080;25.628;2023-10-13T10:41:05;6.13;;;4.38;;
7057;SDS011;3570;43.080;25.628;2023-10-13T10:43:49;5.95;;;4.97;;
7057;SDS011;3570;43.080;25.628;2023-10-13T10:46:33;12.27;;;4.30;;
7057;SDS011;3570;43.080;25.628;2023-10-13T10:49:26;7.32;;;4.78;;
7057;SDS011;3570;43.080;25.628;2023-10-13T10:52:16;9.20;;;4.43;;
7057;SDS011;3570;43.080;25.628;2023-10-13T10:55:04;11.00;;;5.00;;
7057;SDS011;3570;43.080;25.628;2023-10-13T10:57:59;6.10;;;5.03;;
7057;SDS011;3570;43.080;25.628;2023-10-13T11:00:44;7.07;;;4.72;;
7057;SDS011;3570;43.080;25.628;2023-10-13T11:03:35;7.05;;;3.80;;
7057;SDS011;3570;43.080;25.628;2023-10-13T11:06:21;8.27;;;3.47;;
7057;SDS011;3570;43.080;25.628;2023-10-13T11:09:08;4.60;;;3.85;;
7057;SDS011;3570;43.080;25.628;2023-10-13T11:12:15;5.60;;;4.13;;
7057;SDS011;3570;43.080;25.628;2023-10-13T11:15:01;8.05;;;5.53;;
7057;SDS011;3570;43.080;25.628;2023-10-13T11:18:01;7.40;;;4.82;;
7057;SDS011;3570;43.080;25.628;2023-10-13T11:20:49;10.82;;;3.47;;
7057;SDS011;3570;43.080;25.628;2023-10-13T11:23:39;7.75;;;3.55;;
7057;SDS011;3570;43.080;25.628;2023-10-13T11:26:32;9.45;;;3.58;;
7057;SDS011;3570;43.080;25.628;2023-10-13T11:29:18;8.57;;;3.90;;
7057;SDS011;3570;43.080;25.628;2023-10-13T11:32:03;7.07;;;3.28;;
7057;SDS011;3570;43.080;25.628;2023-10-13T11:34:48;4.43;;;3.35;;
7057;SDS011;3570;43.080;25.628;2023-10-13T11:37:38;7.13;;;3.50;;
7057;SDS011;3570;43.080;25.628;2023-10-13T11:40:25;7.30;;;3.53;;
7057;SDS011;3570;43.080;25.628;2023-10-13T11:43:27;5.72;;;3.65;;
7057;SDS011;3570;43.080;25.628;2023-10-13T11:46:14;7.55;;;4.25;;
7057;SDS011;3570;43.080;25.628;2023-10-13T11:49:00;12.38;;;3.50;;
7057;SDS011;3570;43.080;25.628;2023-10-13T11:51:57;7.50;;;3.42;;
7057;SDS011;3570;43.080;25.628;2023-10-13T11:54:59;8.95;;;3.90;;
7057;SDS011;3570;43.080;25.628;2023-10-13T11:57:43;7.07;;;3.92;;
7057;SDS011;3570;43.080;25.628;2023-10-13T12:00:27;9.02;;;3.53;;
7057;SDS011;3570;43.080;25.628;2023-10-13T12:03:31;4.25;;;3.20;;
7057;SDS011;3570;43.080;25.628;2023-10-13T12:06:34;7.25;;;4.07;;
7057;SDS011;3570;43.080;25.628;2023-10-13T12:09:18;5.30;;;3.53;;
7057;SDS011;3570;43.080;25.628;2023-10-13T12:12:03;5.75;;;3.80;;
7057;SDS011;3570;43.080;25.628;2023-10-13T12:14:48;8.30;;;4.32;;
7057;SDS011;3570;43.080;25.628;2023-10-13T12:17:41;6.53;;;4.15;;
7057;SDS011;3570;43.080;25.628;2023-10-13T12:20:28;6.78;;;3.90;;
7057;SDS011;3570;43.080;25.628;2023-10-13T12:23:20;5.32;;;3.63;;
7057;SDS011;3570;43.080;25.628;2023-10-13T12:26:14;7.65;;;3.33;;
7057;SDS011;3570;43.080;25.628;2023-10-13T12:29:13;5.15;;;3.13;;
7057;SDS011;3570;43.080;25.628;2023-10-13T12:32:06;4.60;;;2.67;;
7057;SDS011;3570;43.080;25.628;2023-10-13T12:34:55;4.40;;;3.20;;
7057;SDS011;3570;43.080;25.628;2023-10-13T12:37:48;17.90;;;3.72;;
7057;SDS011;3570;43.080;25.628;2023-10-13T12:40:32;9.80;;;3.78;;
7057;SDS011;3570;43.080;25.628;2023-10-13T12:43:35;6.38;;;3.60;;
7057;SDS011;3570;43.080;25.628;2023-10-13T12:46:48;5.28;;;3.30;;
7057;SDS011;3570;43.080;25.628;2023-10-13T12:49:51;6.68;;;3.35;;
7057;SDS011;3570;43.080;25.628;2023-10-13T12:52:41;10.48;;;3.83;;
7057;SDS011;3570;43.080;25.628;2023-10-13T12:55:29;7.72;;;3.70;;
7057;SDS011;3570;43.080;25.628;2023-10-13T12:58:13;7.63;;;4.18;;
7057;SDS011;3570;43.080;25.628;2023-10-13T13:01:00;7.78;;;3.17;;
7057;SDS011;3570;43.080;25.628;2023-10-13T13:03:50;5.03;;;3.35;;
7057;SDS011;3570;43.080;25.628;2023-10-13T13:06:39;6.07;;;3.40;;
7057;SDS011;3570;43.080;25.628;2023-10-13T13:09:24;6.13;;;3.55;;
7057;SDS011;3570;43.080;25.628;2023-10-13T13:12:11;4.53;;;3.30;;
7057;SDS011;3570;43.080;25.628;2023-10-13T13:14:58;6.38;;;5.15;;
7057;SDS011;3570;43.080;25.628;2023-10-13T13:17:44;7.57;;;3.80;;
7057;SDS011;3570;43.080;25.628;2023-10-13T13:20:29;7.57;;;3.42;;
7057;SDS011;3570;43.080;25.628;2023-10-13T13:23:14;4.57;;;3.83;;
7057;SDS011;3570;43.080;25.628;2023-10-13T13:25:58;7.18;;;3.40;;
7057;SDS011;3570;43.080;25.628;2023-10-13T13:28:42;4.45;;;3.47;;
7057;SDS011;3570;43.080;25.628;2023-10-13T13:31:27;5.22;;;4.55;;
7057;SDS011;3570;43.080;25.628;2023-10-13T13:34:12;4.82;;;3.25;;
7057;SDS011;3570;43.080;25.628;2023-10-13T13:36:57;5.30;;;2.92;;
7057;SDS011;3570;43.080;25.628;2023-10-13T13:39:44;8.52;;;3.85;;
7057;SDS011;3570;43.080;25.628;2023-10-13T13:42:29;8.40;;;3.22;;
7057;SDS011;3570;43.080;25.628;2023-10-13T13:45:20;8.45;;;3.95;;
7057;SDS011;3570;43.080;25.628;2023-10-13T13:48:15;7.63;;;3.27;;
7057;SDS011;3570;43.080;25.628;2023-10-13T13:51:02;6.23;;;2.83;;
7057;SDS011;3570;43.080;25.628;2023-10-13T13:53:58;10.23;;;3.27;;
7057;SDS011;3570;43.080;25.628;2023-10-13T13:56:42;5.20;;;3.27;;
7057;SDS011;3570;43.080;25.628;2023-10-13T13:59:26;10.82;;;4.05;;
7057;SDS011;3570;43.080;25.628;2023-10-13T14:02:17;6.83;;;3.77;;
7057;SDS011;3570;43.080;25.628;2023-10-13T14:05:04;7.83;;;3.33;;
7057;SDS011;3570;43.080;25.628;2023-10-13T14:07:48;6.47;;;3.80;;
7057;SDS011;3570;43.080;25.628;2023-10-13T14:10:33;4.20;;;3.23;;
7057;SDS011;3570;43.080;25.628;2023-10-13T14:13:37;8.30;;;3.93;;
7057;SDS011;3570;43.080;25.628;2023-10-13T14:16:40;4.78;;;3.78;;
7057;SDS011;3570;43.080;25.628;2023-10-13T14:19:31;5.38;;;3.50;;
7057;SDS011;3570;43.080;25.628;2023-10-13T14:22:15;6.20;;;3.13;;
7057;SDS011;3570;43.080;25.628;2023-10-13T14:24:59;5.60;;;3.20;;
7057;SDS011;3570;43.080;25.628;2023-10-13T14:27:52;5.70;;;3.53;;
7057;SDS011;3570;43.080;25.628;2023-10-13T14:30:36;10.60;;;3.97;;
7057;SDS011;3570;43.080;25.628;2023-10-13T14:33:20;8.37;;;3.80;;
7057;SDS011;3570;43.080;25.628;2023-10-13T14:36:09;5.63;;;3.80;;
7057;SDS011;3570;43.080;25.628;2023-10-13T14:38:55;8.33;;;4.10;;
7057;SDS011;3570;43.080;25.628;2023-10-13T14:41:40;6.63;;;4.60;;
7057;SDS011;3570;43.080;25.628;2023-10-13T14:44:24;5.37;;;3.70;;
7057;SDS011;3570;43.080;25.628;2023-10-13T14:47:10;5.47;;;3.53;;
7057;SDS011;3570;43.080;25.628;2023-10-13T14:49:55;5.90;;;4.00;;
7057;SDS011;3570;43.080;25.628;2023-10-13T14:52:43;6.00;;;3.80;;
7057;SDS011;3570;43.080;25.628;2023-10-13T14:55:27;6.87;;;3.80;;
7057;SDS011;3570;43.080;25.628;2023-10-13T14:58:22;13.07;;;4.37;;
7057;SDS011;3570;43.080;25.628;2023-10-13T15:01:13;8.03;;;4.60;;
7057;SDS011;3570;43.080;25.628;2023-10-13T15:04:01;8.37;;;5.33;;
7057;SDS011;3570;43.080;25.628;2023-10-13T15:06:48;8.83;;;3.83;;
7057;SDS011;3570;43.080;25.628;2023-10-13T15:09:33;12.27;;;4.60;;
7057;SDS011;3570;43.080;25.628;2023-10-13T15:12:18;23.93;;;4.70;;
7057;SDS011;3570;43.080;25.628;2023-10-13T15:15:03;12.07;;;4.97;;
7057;SDS011;3570;43.080;25.628;2023-10-13T15:17:49;12.07;;;4.20;;
7057;SDS011;3570;43.080;25.628;2023-10-13T15:20:38;12.57;;;3.97;;
7057;SDS011;3570;43.080;25.628;2023-10-13T15:23:23;7.00;;;3.70;;
7057;SDS011;3570;43.080;25.628;2023-10-13T15:26:09;10.90;;;4.00;;
7057;SDS011;3570;43.080;25.628;2023-10-13T15:28:53;7.80;;;4.10;;
7057;SDS011;3570;43.080;25.628;2023-10-13T15:31:39;8.83;;;4.37;;
7057;SDS011;3570;43.080;25.628;2023-10-13T15:34:24;13.93;;;4.30;;
7057;SDS011;3570;43.080;25.628;2023-10-13T15:37:10;10.87;;;3.87;;
7057;SDS011;3570;43.080;25.628;2023-10-13T15:39:56;11.67;;;4.03;;
7057;SDS011;3570;43.080;25.628;2023-10-13T15:42:42;6.70;;;4.43;;
7057;SDS011;3570;43.080;25.628;2023-10-13T15:45:30;12.03;;;4.33;;
7057;SDS011;3570;43.080;25.628;2023-10-13T15:48:22;5.83;;;4.20;;
7057;SDS011;3570;43.080;25.628;2023-10-13T15:51:10;8.10;;;4.00;;
7057;SDS011;3570;43.080;25.628;2023-10-13T15:53:58;11.93;;;3.70;;
7057;SDS011;3570;43.080;25.628;2023-10-13T15:56:44;11.83;;;4.60;;
7057;SDS011;3570;43.080;25.628;2023-10-13T15:59:32;10.97;;;4.27;;
7057;SDS011;3570;43.080;25.628;2023-10-13T16:02:17;8.40;;;4.27;;
7057;SDS011;3570;43.080;25.628;2023-10-13T16:05:06;11.40;;;4.20;;
7057;SDS011;3570;43.080;25.628;2023-10-13T16:07:51;9.07;;;4.70;;
7057;SDS011;3570;43.080;25.628;2023-10-13T16:10:37;7.57;;;4.10;;
7057;SDS011;3570;43.080;25.628;2023-10-13T16:13:22;12.50;;;4.33;;
7057;SDS011;3570;43.080;25.628;2023-10-13T16:16:06;9.43;;;4.33;;
7057;SDS011;3570;43.080;25.628;2023-10-13T16:18:58;8.27;;;4.50;;
7057;SDS011;3570;43.080;25.628;2023-10-13T16:21:42;12.33;;;4.50;;
7057;SDS011;3570;43.080;25.628;2023-10-13T16:24:26;9.30;;;4.13;;
7057;SDS011;3570;43.080;25.628;2023-10-13T16:27:10;9.30;;;4.13;;
7057;SDS011;3570;43.080;25.628;2023-10-13T16:29:57;7.37;;;4.13;;
7057;SDS011;3570;43.080;25.628;2023-10-13T16:32:44;7.67;;;4.20;;
7057;SDS011;3570;43.080;25.628;2023-10-13T16:35:29;16.70;;;4.23;;
7057;SDS011;3570;43.080;25.628;2023-10-13T16:38:17;7.23;;;4.63;;
7057;SDS011;3570;43.080;25.628;2023-10-13T16:41:01;13.67;;;4.47;;
7057;SDS011;3570;43.080;25.628;2023-10-13T16:43:50;8.60;;;4.60;;
7057;SDS011;3570;43.080;25.628;2023-10-13T16:46:40;9.73;;;5.33;;
7057;SDS011;3570;43.080;25.628;2023-10-13T16:49:24;6.97;;;4.63;;
7057;SDS011;3570;43.080;25.628;2023-10-13T16:52:09;9.03;;;4.27;;
7057;SDS011;3570;43.080;25.628;2023-10-13T16:54:53;10.10;;;4.50;;
7057;SDS011;3570;43.080;25.628;2023-10-13T16:57:37;9.40;;;4.60;;
7057;SDS011;3570;43.080;25.628;2023-10-13T17:00:22;8.03;;;4.80;;
7057;SDS011;3570;43.080;25.628;2023-10-13T17:03:10;14.33;;;4.87;;
7057;SDS011;3570;43.080;25.628;2023-10-13T17:05:56;7.73;;;4.77;;
7057;SDS011;3570;43.080;25.628;2023-10-13T17:08:44;9.73;;;5.50;;
7057;SDS011;3570;43.080;25.628;2023-10-13T17:11:28;9.77;;;4.70;;
7057;SDS011;3570;43.080;25.628;2023-10-13T17:14:12;13.70;;;5.87;;
7057;SDS011;3570;43.080;25.628;2023-10-13T17:16:56;13.43;;;6.00;;
7057;SDS011;3570;43.080;25.628;2023-10-13T17:19:43;10.47;;;5.67;;
7057;SDS011;3570;43.080;25.628;2023-10-13T17:22:33;8.40;;;5.00;;
7057;SDS011;3570;43.080;25.628;2023-10-13T17:25:18;11.63;;;4.50;;